Time;durP1;ratioP1;P1;durP2;ratioP2;P2;SDS_P1;SDS_P2;PMS_P1;PMS_P2;Temp;Humidity;BMP_temperature;BMP_pressure;BME280_temperature;BME280_humidity;BME280_pressure;Samples;Min_cycle;Max_cycle;Signal;HPM_P1;HPM_P2
2022/12/05 00:01:30;;;;;;;19.15;7.78;;;4.60;99.90;;;4.58;98.93;100515.69;5002485;28;20207;-67
2022/12/05 00:03:59;;;;;;;10.95;5.70;;;4.60;99.90;;;4.65;99.94;100526.56;5015553;28;20230;-66
2022/12/05 00:06:29;;;;;;;7.30;5.10;;;4.50;99.90;;;4.68;99.48;100532.41;5005905;28;20702;-67
2022/12/05 00:08:56;;;;;;;10.80;5.57;;;4.60;99.90;;;4.75;99.20;100535.53;5014652;28;20629;-66
2022/12/05 00:11:28;;;;;;;5.50;4.30;;;4.60;99.90;;;4.80;99.13;100530.13;5000050;28;20208;-66
2022/12/05 00:13:58;;;;;;;12.57;7.25;;;4.60;99.90;;;4.72;98.62;100528.78;5013562;28;20230;-67
2022/12/05 00:16:29;;;;;;;8.25;4.72;;;4.60;99.90;;;4.80;98.73;100535.31;5019150;28;20206;-65
2022/12/05 00:18:59;;;;;;;3.42;3.08;;;4.60;99.90;;;4.85;98.06;100538.53;5015823;28;20206;-65
2022/12/05 00:21:31;;;;;;;5.50;3.30;;;4.70;99.90;;;4.84;97.71;100548.00;5015971;28;20205;-66
2022/12/05 00:24:00;;;;;;;4.82;3.35;;;4.70;99.90;;;4.88;97.88;100546.09;4998163;28;20228;-65
2022/12/05 00:26:27;;;;;;;6.78;4.43;;;4.70;99.90;;;4.92;98.08;100545.88;5008175;28;20219;-67
2022/12/05 00:28:56;;;;;;;7.05;4.88;;;4.70;99.90;;;4.96;97.66;100544.81;4978349;28;20741;-66
2022/12/05 00:31:25;;;;;;;11.10;5.25;;;4.70;99.90;;;5.01;97.71;100550.59;5003535;28;20205;-65
2022/12/05 00:33:53;;;;;;;6.60;5.00;;;4.70;99.90;;;5.01;96.99;100550.59;4996799;28;20279;-66
2022/12/05 00:36:24;;;;;;;9.15;5.00;;;4.70;99.90;;;5.00;96.86;100553.25;5015595;28;20222;-65
2022/12/05 00:38:53;;;;;;;9.93;5.63;;;4.80;99.90;;;4.99;97.19;100552.41;5015699;28;20213;-67
2022/12/05 00:41:24;;;;;;;9.95;4.25;;;4.80;99.90;;;5.02;97.12;100547.09;5016008;28;20221;-65
2022/12/05 00:43:52;;;;;;;3.50;3.17;;;4.80;99.90;;;4.95;97.63;100547.47;5020518;28;20722;-66
2022/12/05 00:46:22;;;;;;;10.10;5.35;;;4.80;99.90;;;4.96;97.46;100549.97;5024218;28;20582;-66
2022/12/05 00:48:53;;;;;;;6.90;4.93;;;4.80;99.90;;;5.00;97.49;100553.25;5035708;28;20201;-66
2022/12/05 00:51:27;;;;;;;5.65;3.85;;;4.80;99.90;;;4.99;97.69;100551.56;5013905;28;20269;-66
2022/12/05 00:53:58;;;;;;;4.35;3.35;;;4.80;99.90;;;4.95;97.45;100552.66;5020397;28;20230;-65
2022/12/05 00:56:27;;;;;;;12.80;6.53;;;4.80;99.90;;;4.93;97.48;100552.72;5022486;28;20208;-66
2022/12/05 00:58:56;;;;;;;10.85;4.90;;;4.70;99.90;;;4.92;97.82;100552.81;5039145;28;20205;-66
2022/12/05 01:01:43;;;;;;;9.50;4.97;;;4.80;99.90;;;4.93;97.61;100555.31;5014740;28;20206;-65
2022/12/05 01:04:15;;;;;;;6.15;3.75;;;4.70;99.90;;;5.01;97.49;100554.91;5020660;28;20231;-66
2022/12/05 01:06:43;;;;;;;9.52;5.65;;;4.80;99.90;;;4.97;97.30;100554.25;5031474;28;20217;-66
2022/12/05 01:09:15;;;;;;;3.80;3.42;;;4.80;99.90;;;4.98;97.58;100565.44;5013772;28;20202;-67
2022/12/05 01:11:43;;;;;;;12.43;6.32;;;4.80;99.90;;;5.00;97.35;100569.63;5017075;28;20229;-64
2022/12/05 01:14:12;;;;;;;5.78;3.97;;;4.80;99.90;;;5.00;97.45;100564.44;5018136;28;20232;-67
2022/12/05 01:16:42;;;;;;;6.32;3.42;;;4.80;99.90;;;4.99;97.31;100573.09;5013699;28;20213;-65
2022/12/05 01:19:17;;;;;;;8.13;5.15;;;4.80;99.90;;;4.99;97.53;100572.25;5022439;28;20202;-65
2022/12/05 01:21:44;;;;;;;6.88;4.05;;;4.80;99.90;;;5.03;97.63;100573.78;5007483;28;20674;-65
2022/12/05 01:24:11;;;;;;;6.35;4.22;;;4.80;99.90;;;5.04;97.63;100578.06;5002466;28;20218;-66
2022/12/05 01:26:40;;;;;;;3.53;2.85;;;4.80;99.90;;;5.02;97.23;100566.94;5017991;28;20235;-67
2022/12/05 01:29:07;;;;;;;7.07;5.00;;;4.80;99.90;;;5.03;97.38;100571.19;5017325;28;20210;-66
2022/12/05 01:31:36;;;;;;;6.45;4.35;;;4.80;99.90;;;5.01;97.33;100576.44;5002331;28;20206;-67
2022/12/05 01:34:09;;;;;;;5.43;3.58;;;4.80;99.90;;;5.04;97.01;100575.47;5000726;28;20595;-66
2022/12/05 01:36:38;;;;;;;3.97;3.17;;;4.80;99.90;;;5.07;97.14;100570.16;5016358;28;20587;-66
2022/12/05 01:39:07;;;;;;;7.95;4.00;;;4.80;99.90;;;5.08;96.89;100569.22;5038145;28;20626;-67
2022/12/05 01:41:40;;;;;;;7.55;4.38;;;4.80;99.90;;;5.10;96.80;100567.41;5032260;28;20221;-65
2022/12/05 01:44:10;;;;;;;9.68;5.22;;;4.80;99.90;;;5.15;96.15;100573.19;5003881;28;20237;-66
2022/12/05 01:46:49;;;;;;;5.03;3.38;;;4.80;99.90;;;5.10;96.76;100581.16;5017268;28;20249;-67
2022/12/05 01:49:26;;;;;;;7.15;3.97;;;4.90;99.90;;;5.04;96.42;100572.88;5027416;28;20209;-64
2022/12/05 01:51:57;;;;;;;6.35;3.78;;;4.80;99.90;;;5.04;96.46;100568.56;5016282;28;20194;-65
2022/12/05 01:54:24;;;;;;;5.22;4.15;;;4.80;99.90;;;5.06;96.48;100581.41;5018509;28;20226;-66
2022/12/05 01:56:58;;;;;;;6.72;3.83;;;4.80;99.90;;;5.05;96.53;100579.72;4998556;28;20217;-65
2022/12/05 01:59:32;;;;;;;6.68;3.42;;;4.80;99.90;;;5.04;96.56;100584.06;5004017;28;20260;-65
2022/12/05 02:01:59;;;;;;;4.85;3.40;;;4.80;99.90;;;5.05;96.79;100590.06;5013267;28;20231;-65
2022/12/05 02:04:26;;;;;;;3.67;3.28;;;4.80;99.90;;;5.05;96.42;100595.22;5012215;28;20230;-65
2022/12/05 02:06:53;;;;;;;4.07;2.85;;;4.80;99.90;;;5.04;96.59;100596.16;5007942;28;20226;-67
2022/12/05 02:09:21;;;;;;;9.30;5.00;;;4.80;99.90;;;5.07;96.81;100591.66;5019942;28;20201;-65
2022/12/05 02:12:01;;;;;;;8.00;4.50;;;4.80;99.90;;;5.06;97.01;100594.31;5000829;28;20202;-65
2022/12/05 02:15:22;;;;;;;5.00;3.53;;;4.80;99.90;;;5.07;96.34;100599.41;5001666;28;20231;-65
2022/12/05 02:18:10;;;;;;;2.53;1.88;;;4.80;99.90;;;5.06;96.22;100600.34;5017087;28;20207;-65
2022/12/05 02:20:57;;;;;;;2.88;2.60;;;4.80;99.90;;;5.06;96.06;100602.09;5029472;28;20214;-65
2022/12/05 02:24:07;;;;;;;2.30;2.15;;;4.80;99.90;;;5.04;95.69;100594.41;5037730;28;20647;-65
2022/12/05 02:26:50;;;;;;;2.08;1.95;;;4.80;99.90;;;5.08;95.64;100602.84;5014316;28;20229;-66
2022/12/05 02:29:45;;;;;;;3.95;2.65;;;4.80;99.90;;;5.06;95.82;100604.66;5002920;28;20210;-65
2022/12/05 02:32:28;;;;;;;3.78;3.42;;;4.80;99.90;;;5.04;95.93;100603.91;4997698;28;20215;-68
2022/12/05 02:35:10;;;;;;;8.55;3.95;;;4.80;99.90;;;5.07;95.21;100596.81;5042629;22;20307;-64
2022/12/05 02:37:47;;;;;;;7.15;4.63;;;4.80;99.90;;;5.05;95.63;100592.63;5045773;28;20209;-64
2022/12/05 02:40:39;;;;;;;11.80;4.90;;;4.80;99.90;;;5.05;95.45;100593.47;5022478;28;20206;-65
2022/12/05 02:43:12;;;;;;;16.45;5.95;;;4.80;99.90;;;4.89;96.18;100599.50;5030341;28;20217;-64
2022/12/05 02:45:42;;;;;;;10.82;5.55;;;4.80;99.90;;;4.76;97.05;100601.00;5013076;28;20573;-64
2022/12/05 02:48:13;;;;;;;9.88;5.50;;;4.70;99.90;;;4.81;97.06;100606.78;5031303;28;20252;-64
2022/12/05 02:50:42;;;;;;;17.48;8.40;;;4.70;99.90;;;4.78;97.06;100609.50;5032627;28;20263;-64
2022/12/05 02:53:13;;;;;;;8.85;4.93;;;4.70;99.90;;;4.81;97.09;100620.56;5020608;28;20225;-64
2022/12/05 02:55:41;;;;;;;11.25;5.82;;;4.70;99.90;;;4.83;96.78;100616.16;5020132;28;20200;-63
2022/12/05 02:58:19;;;;;;;6.45;4.28;;;4.70;99.90;;;4.82;97.06;100622.22;5022215;28;20205;-64
2022/12/05 03:00:49;;;;;;;11.60;5.30;;;4.70;99.90;;;4.88;97.02;100631.41;5031482;28;20673;-64
2022/12/05 03:03:20;;;;;;;3.50;3.00;;;4.70;99.90;;;4.87;96.73;100624.59;5013039;28;20229;-65
2022/12/05 03:06:09;;;;;;;13.30;6.93;;;4.70;99.90;;;4.91;96.24;100626.94;5026493;28;20205;-65
2022/12/05 03:08:48;;;;;;;3.88;2.97;;;4.70;99.90;;;4.91;96.41;100639.03;5020968;28;20212;-63
2022/12/05 03:11:15;;;;;;;3.17;2.70;;;4.70;99.90;;;4.92;96.07;100638.94;5026831;28;20314;-63
2022/12/05 03:13:49;;;;;;;2.50;2.25;;;4.70;99.90;;;4.95;96.51;100643.13;5031035;28;20237;-63
2022/12/05 03:16:32;;;;;;;4.57;2.22;;;4.80;99.90;;;4.96;96.70;100650.81;5012857;28;20205;-63
2022/12/05 03:19:17;;;;;;;3.47;3.15;;;4.80;99.90;;;4.99;95.66;100650.69;5010325;28;20213;-63
2022/12/05 03:22:02;;;;;;;5.22;3.58;;;4.80;99.90;;;5.04;95.53;100640.97;5029463;28;20244;-63
2022/12/05 03:24:30;;;;;;;3.85;3.00;;;4.80;99.90;;;5.03;95.56;100638.44;5019187;28;20229;-63
2022/12/05 03:27:25;;;;;;;2.63;2.47;;;4.80;99.90;;;5.02;96.04;100641.94;5028741;28;20226;-64
2022/12/05 03:30:01;;;;;;;4.50;2.65;;;4.80;99.90;;;5.04;95.68;100647.88;5044495;28;20213;-64
2022/12/05 03:33:02;;;;;;;3.38;2.42;;;4.80;99.90;;;5.01;95.60;100648.00;5021847;28;20203;-64
2022/12/05 03:36:10;;;;;;;2.22;2.05;;;4.90;99.90;;;5.06;95.43;100646.03;5030259;28;20202;-64
2022/12/05 03:38:53;;;;;;;2.38;2.17;;;4.80;99.90;;;4.96;95.74;100655.16;5005923;28;20218;-64
2022/12/05 03:41:48;;;;;;;3.42;2.47;;;4.80;99.90;;;4.98;95.41;100658.53;5025656;28;20206;-64
2022/12/05 03:44:55;;;;;;;5.70;3.33;;;4.80;99.90;;;4.81;96.75;100661.06;5022804;28;20713;-64
2022/12/05 03:47:41;;;;;;;5.90;3.08;;;4.80;99.90;;;4.88;96.31;100662.44;5009206;28;20229;-64
2022/12/05 03:50:23;;;;;;;3.13;2.85;;;4.70;99.90;;;4.98;95.52;100661.09;5022499;28;20209;-64
2022/12/05 03:53:20;;;;;;;3.72;3.38;;;4.80;99.90;;;5.00;96.39;100672.22;5016234;28;20201;-62
2022/12/05 03:55:56;;;;;;;2.10;1.95;;;4.80;99.90;;;5.02;95.84;100670.38;5010706;28;20201;-64
2022/12/05 03:58:37;;;;;;;2.55;2.45;;;4.80;99.90;;;4.99;96.17;100671.38;5012937;28;20258;-64
2022/12/05 04:01:07;;;;;;;2.90;2.70;;;4.80;99.90;;;5.05;95.53;100665.03;5009600;28;20667;-65
2022/12/05 04:03:50;;;;;;;2.28;1.85;;;4.80;99.90;;;5.04;96.05;100664.22;5010755;28;20256;-62
2022/12/05 04:06:27;;;;;;;4.70;2.70;;;4.80;99.90;;;5.04;95.80;100673.72;5026548;28;20213;-63
2022/12/05 04:09:03;;;;;;;3.35;3.05;;;4.80;99.90;;;5.01;96.34;100676.44;5030086;28;20244;-63
2022/12/05 04:11:36;;;;;;;5.13;2.78;;;4.80;99.90;;;4.95;96.55;100680.19;5012083;28;20205;-61
2022/12/05 04:14:13;;;;;;;4.45;3.17;;;4.80;99.90;;;4.88;97.13;100683.13;5035308;28;20287;-62
2022/12/05 04:17:04;;;;;;;3.95;2.70;;;4.80;99.90;;;5.02;96.11;100685.91;5047441;28;20210;-62
2022/12/05 04:22:33;;;;;;;6.15;3.35;;;4.80;99.90;;;4.78;97.28;100689.66;5029593;28;20212;-63
2022/12/05 04:28:24;;;;;;;2.85;2.67;;;4.70;99.90;;;4.87;97.50;100677.13;5038680;28;20222;-63
2022/12/05 04:31:38;;;;;;;2.15;2.00;;;4.70;99.90;;;4.92;97.62;100674.34;5030153;28;20210;-63
2022/12/05 04:34:09;;;;;;;3.72;2.50;;;4.80;99.90;;;4.97;97.29;100677.50;4986177;28;20250;-63
2022/12/05 04:37:01;;;;;;;8.52;4.90;;;4.80;99.90;;;4.92;97.64;100669.16;5004780;28;20198;-61
2022/12/05 04:39:45;;;;;;;6.28;4.05;;;4.80;99.90;;;4.93;98.00;100674.25;5011837;28;20199;-65
2022/12/05 04:42:18;;;;;;;4.63;3.55;;;4.80;99.90;;;4.99;97.41;100675.69;5030145;28;20236;-63
2022/12/05 04:45:08;;;;;;;7.00;2.53;;;4.80;99.90;;;5.05;97.35;100678.81;5013659;28;20779;-65
2022/12/05 04:47:41;;;;;;;6.30;3.25;;;4.80;99.90;;;5.09;96.98;100679.53;5013145;28;20225;-64
2022/12/05 04:50:11;;;;;;;5.00;3.83;;;4.80;99.90;;;5.08;96.75;100681.28;5012187;28;20202;-64
2022/12/05 04:52:39;;;;;;;3.40;3.10;;;4.90;99.90;;;5.14;96.35;100680.13;5014715;28;20636;-64
2022/12/05 04:55:14;;;;;;;4.53;3.05;;;4.90;99.90;;;5.08;96.56;100675.25;5046664;28;20270;-61
2022/12/05 04:58:07;;;;;;;3.83;2.95;;;4.90;99.90;;;5.12;96.11;100677.63;5041502;28;20674;-63
2022/12/05 05:01:04;;;;;;;4.50;2.38;;;4.90;99.90;;;5.18;95.66;100679.06;5012872;28;20628;-64
2022/12/05 05:04:09;;;;;;;3.22;2.30;;;4.90;99.90;;;5.09;96.40;100671.78;5038171;28;20221;-64
2022/12/05 05:06:41;;;;;;;7.07;3.65;;;4.90;99.90;;;5.05;96.55;100672.81;5046310;28;20205;-64
2022/12/05 05:09:09;;;;;;;2.45;2.25;;;4.90;99.90;;;4.99;96.26;100667.94;5025971;28;20245;-63
2022/12/05 05:11:37;;;;;;;3.00;2.50;;;4.90;99.90;;;4.96;97.08;100665.50;5012361;28;20234;-65
2022/12/05 05:14:04;;;;;;;2.10;1.88;;;4.90;99.90;;;4.90;97.00;100668.41;5030063;28;20727;-65
2022/12/05 05:16:36;;;;;;;4.93;2.60;;;4.80;99.90;;;4.96;97.44;100668.91;5030429;28;20205;-65
2022/12/05 05:19:05;;;;;;;3.40;2.80;;;4.80;99.90;;;4.95;97.80;100667.25;5030241;28;20285;-65
2022/12/05 05:21:38;;;;;;;4.38;2.90;;;4.80;99.90;;;5.01;98.25;100668.69;5012748;28;20203;-63
2022/12/05 05:24:08;;;;;;;3.88;3.47;;;4.80;99.90;;;5.08;97.58;100680.44;5025922;28;20222;-63
2022/12/05 05:26:39;;;;;;;5.78;3.45;;;4.80;99.90;;;5.07;98.14;100683.94;5029884;28;20229;-63
2022/12/05 05:29:08;;;;;;;3.28;2.70;;;4.80;99.90;;;5.14;97.49;100680.13;5042124;28;20198;-64
2022/12/05 05:31:36;;;;;;;3.88;2.75;;;4.90;99.90;;;5.16;97.15;100671.38;5028585;28;20205;-64
2022/12/05 05:34:04;;;;;;;4.82;2.70;;;4.90;99.90;;;5.09;97.27;100675.16;5042005;28;20241;-64
2022/12/05 05:36:36;;;;;;;3.20;2.90;;;4.90;99.90;;;5.07;97.36;100686.53;5043173;28;20669;-65
2022/12/05 05:39:05;;;;;;;4.80;2.20;;;4.90;99.90;;;5.06;97.63;100688.28;5049423;28;20197;-64
2022/12/05 05:41:35;;;;;;;5.40;2.88;;;4.90;99.90;;;5.07;97.67;100686.53;5045096;28;20201;-64
2022/12/05 05:44:03;;;;;;;6.22;4.07;;;4.90;99.90;;;5.08;97.97;100686.44;5014059;28;20222;-63
2022/12/05 05:46:33;;;;;;;2.72;2.53;;;4.90;99.90;;;5.07;97.47;100683.94;5031441;28;20217;-65
2022/12/05 05:49:01;;;;;;;2.38;2.17;;;4.90;99.90;;;5.09;97.70;100685.50;5022375;28;20214;-65
2022/12/05 05:51:29;;;;;;;3.88;2.65;;;4.90;99.90;;;5.12;96.96;100693.13;5033459;28;20201;-64
2022/12/05 05:53:57;;;;;;;4.32;2.90;;;4.90;99.90;;;5.07;97.53;100683.94;5032603;28;20633;-63
2022/12/05 05:56:24;;;;;;;5.13;2.80;;;4.90;99.90;;;5.02;97.90;100691.91;5032676;28;20197;-64
2022/12/05 05:59:01;;;;;;;3.78;2.95;;;4.90;99.90;;;5.08;97.05;100693.34;5032575;28;20264;-64
2022/12/05 06:01:29;;;;;;;3.72;2.83;;;4.90;99.90;;;4.98;97.85;100698.16;5026522;28;20206;-64
2022/12/05 06:03:57;;;;;;;6.63;2.95;;;4.90;99.90;;;4.91;98.05;100708.84;5033118;28;20283;-63
2022/12/05 06:06:25;;;;;;;2.97;2.65;;;4.90;99.90;;;4.96;98.38;100712.06;5032209;28;20208;-63
2022/12/05 06:08:53;;;;;;;4.93;3.40;;;4.90;99.90;;;4.77;99.24;100713.84;5032366;28;20221;-62
2022/12/05 06:11:25;;;;;;;6.18;3.30;;;4.80;99.90;;;4.90;98.55;100723.50;5031344;28;20206;-63
2022/12/05 06:14:01;;;;;;;4.25;2.55;;;4.80;99.90;;;4.97;97.71;100724.06;5031726;28;20257;-63
2022/12/05 06:16:30;;;;;;;5.88;3.20;;;4.80;99.90;;;4.97;98.58;100729.22;5037406;28;20246;-65
2022/12/05 06:18:58;;;;;;;6.60;4.22;;;4.80;99.90;;;4.98;98.39;100728.34;5039679;28;20201;-64
2022/12/05 06:21:25;;;;;;;4.00;3.35;;;4.80;99.90;;;5.01;98.57;100720.41;5031049;28;20213;-64
2022/12/05 06:23:53;;;;;;;4.57;3.55;;;4.80;99.90;;;5.11;98.56;100722.47;5031693;28;20229;-63
2022/12/05 06:26:21;;;;;;;4.93;2.85;;;4.80;99.90;;;5.13;98.09;100710.31;5032428;28;20206;-63
2022/12/05 06:28:49;;;;;;;6.35;4.15;;;4.90;99.90;;;5.15;97.47;100720.59;5031780;28;20235;-64
2022/12/05 06:31:20;;;;;;;6.15;4.05;;;4.90;99.90;;;5.15;98.51;100729.22;5030414;28;20653;-64
2022/12/05 06:33:47;;;;;;;5.22;4.20;;;4.90;99.90;;;5.19;98.18;100729.91;5031686;28;20281;-63
2022/12/05 06:36:18;;;;;;;6.80;3.60;;;5.00;99.90;;;5.24;97.82;100736.50;5032150;28;20199;-63
2022/12/05 06:38:45;;;;;;;4.13;3.45;;;5.00;99.90;;;5.28;97.41;100732.03;5031286;28;20212;-64
2022/12/05 06:41:18;;;;;;;7.78;3.70;;;5.00;99.90;;;5.23;97.78;100732.25;5031745;28;20214;-64
2022/12/05 06:43:46;;;;;;;8.98;4.80;;;5.00;99.90;;;5.18;97.95;100741.13;5032311;28;20638;-64
2022/12/05 06:46:14;;;;;;;8.65;4.35;;;5.00;99.90;;;5.19;98.25;100741.09;5033746;28;20203;-64
2022/12/05 06:48:41;;;;;;;6.30;3.83;;;5.00;99.90;;;5.25;98.48;100751.13;5042055;28;20296;-64
2022/12/05 06:51:11;;;;;;;5.38;3.75;;;5.00;99.90;;;5.27;97.57;100744.13;5049132;28;20669;-64
2022/12/05 06:53:38;;;;;;;15.85;6.40;;;5.00;99.90;;;5.24;98.39;100756.34;5045141;28;20709;-64
2022/12/05 06:56:12;;;;;;;7.70;4.60;;;5.00;99.90;;;5.26;98.11;100752.78;5030337;28;20196;-64
2022/12/05 06:58:45;;;;;;;2.85;2.70;;;5.00;99.90;;;5.36;97.57;100760.97;5013332;28;20288;-64
2022/12/05 07:04:22;;;;;;;2.42;2.25;;;5.10;99.90;;;5.12;98.58;100764.72;5037420;28;20736;-64
2022/12/05 07:06:51;;;;;;;4.25;2.78;;;5.00;99.90;;;5.11;99.30;100763.06;5013711;28;20209;-64
2022/12/05 07:09:44;;;;;;;5.43;2.55;;;5.00;99.90;;;5.09;99.07;100768.28;5031123;28;20233;-64
2022/12/05 07:12:10;;;;;;;3.20;2.28;;;5.00;99.90;;;5.09;99.52;100778.63;5031002;28;20202;-64
2022/12/05 07:14:37;;;;;;;3.25;2.85;;;5.00;99.90;;;5.04;99.89;100784.94;5026900;28;20615;-64
2022/12/05 07:17:14;;;;;;;3.65;2.55;;;5.00;99.90;;;4.94;100.00;100781.91;5030277;28;20202;-65
2022/12/05 07:19:40;;;;;;;4.43;2.80;;;4.90;99.90;;;4.83;100.00;100778.16;5033033;28;20283;-65
2022/12/05 07:22:07;;;;;;;5.78;2.95;;;4.90;99.90;;;4.93;100.00;100782.84;5030144;28;20245;-64
2022/12/05 07:24:42;;;;;;;5.63;3.05;;;4.90;99.90;;;4.94;100.00;100773.34;5017990;28;20217;-65
2022/12/05 07:27:08;;;;;;;6.03;2.33;;;4.90;99.90;;;4.97;100.00;100779.22;5032321;28;20212;-65
2022/12/05 07:29:35;;;;;;;3.00;2.75;;;4.90;99.90;;;4.84;100.00;100788.44;5028887;28;20268;-65
2022/12/05 07:32:02;;;;;;;4.65;3.28;;;4.90;99.90;;;4.91;100.00;100786.41;5029808;28;20205;-65
2022/12/05 07:34:29;;;;;;;8.50;3.50;;;4.90;99.90;;;4.98;100.00;100799.00;5045968;28;20229;-65
2022/12/05 07:36:56;;;;;;;6.35;2.70;;;4.90;99.90;;;4.78;100.00;100790.44;5044700;28;20250;-64
2022/12/05 07:39:23;;;;;;;4.43;2.80;;;4.80;99.90;;;4.94;100.00;100788.88;5026949;28;20198;-65
2022/12/05 07:41:50;;;;;;;5.80;2.75;;;4.80;99.90;;;4.85;100.00;100791.84;5025715;28;20262;-65
2022/12/05 07:44:17;;;;;;;3.35;1.42;;;4.80;99.90;;;4.85;100.00;100786.69;5028006;28;20225;-65
2022/12/05 07:46:44;;;;;;;3.15;2.53;;;4.80;99.90;;;4.89;100.00;100785.63;5029588;28;20205;-64
2022/12/05 07:49:10;;;;;;;2.15;1.90;;;4.90;99.90;;;4.94;100.00;100791.44;5033948;28;20699;-65
2022/12/05 07:51:37;;;;;;;3.53;2.17;;;4.90;99.90;;;4.85;100.00;100791.84;5049985;28;20212;-65
2022/12/05 07:54:05;;;;;;;3.45;2.28;;;4.80;99.90;;;4.98;100.00;100798.16;5039141;28;20279;-65
2022/12/05 07:56:32;;;;;;;7.82;3.15;;;4.90;99.90;;;4.99;100.00;100800.66;5031192;28;20206;-65
2022/12/05 07:58:59;;;;;;;4.68;3.25;;;4.90;99.90;;;5.01;100.00;100800.56;5028715;28;20205;-65
2022/12/05 08:01:28;;;;;;;5.78;3.33;;;4.90;99.90;;;5.04;100.00;100806.47;5026463;28;20785;-65
2022/12/05 08:03:58;;;;;;;3.53;2.05;;;4.90;99.90;;;5.01;100.00;100804.00;5012816;28;20233;-65
2022/12/05 08:06:29;;;;;;;3.05;2.78;;;4.90;99.90;;;5.11;100.00;100807.03;5013505;28;20210;-65
2022/12/05 08:08:57;;;;;;;3.15;2.30;;;4.90;99.90;;;5.16;100.00;100811.06;5031379;28;20721;-65
2022/12/05 08:11:28;;;;;;;2.38;2.20;;;5.00;99.90;;;5.23;100.00;100806.44;5030946;28;20244;-65
2022/12/05 08:13:57;;;;;;;4.28;3.17;;;5.00;99.90;;;5.16;100.00;100808.47;5029949;28;20314;-65
2022/12/05 08:16:29;;;;;;;2.67;2.50;;;5.00;99.90;;;5.29;100.00;100813.91;5030350;28;20201;-65
2022/12/05 08:19:01;;;;;;;5.00;2.35;;;5.10;99.90;;;5.36;100.00;100815.31;5029944;28;20202;-65
2022/12/05 08:21:28;;;;;;;3.53;2.47;;;5.10;99.90;;;5.23;100.00;100821.97;5030547;28;20255;-64
2022/12/05 08:23:56;;;;;;;3.85;2.25;;;5.10;99.90;;;5.14;100.00;100819.78;5026855;28;20230;-64
2022/12/05 08:26:27;;;;;;;2.55;2.35;;;5.10;99.90;;;5.10;100.00;100826.03;5007370;28;20209;-64
2022/12/05 08:28:58;;;;;;;3.90;2.70;;;5.00;99.90;;;5.19;100.00;100812.66;5019971;28;20235;-63
2022/12/05 08:31:27;;;;;;;7.55;2.65;;;5.10;99.90;;;5.33;100.00;100828.38;5041130;28;20422;-64
2022/12/05 08:33:59;;;;;;;6.40;3.00;;;5.10;99.90;;;5.01;100.00;100832.44;5023495;28;20232;-64
2022/12/05 08:36:30;;;;;;;2.35;2.20;;;5.10;99.90;;;5.17;100.00;100837.78;5022068;28;20216;-64
2022/12/05 08:39:01;;;;;;;4.70;2.83;;;5.10;99.90;;;5.23;100.00;100845.25;5029007;28;20205;-64
2022/12/05 08:41:28;;;;;;;4.93;2.90;;;5.10;99.90;;;5.23;100.00;100840.91;5034037;28;20212;-65
2022/12/05 08:44:01;;;;;;;4.55;3.47;;;5.10;99.90;;;5.15;100.00;100842.19;5037908;28;20225;-65
2022/12/05 08:46:30;;;;;;;3.33;2.67;;;5.10;99.90;;;5.15;100.00;100847.34;5000580;28;20632;-64
2022/12/05 08:48:58;;;;;;;2.30;1.30;;;5.10;99.90;;;5.35;100.00;100847.25;5045074;28;20220;-64
2022/12/05 08:51:25;;;;;;;4.10;1.65;;;5.20;99.90;;;5.31;100.00;100848.31;5031266;28;20202;-65
2022/12/05 08:53:52;;;;;;;2.97;1.70;;;5.20;99.90;;;5.30;100.00;100849.22;5032074;28;20221;-65
2022/12/05 08:56:20;;;;;;;3.25;2.47;;;5.20;99.90;;;5.06;100.00;100852.94;5049742;28;20203;-65
2022/12/05 08:58:53;;;;;;;4.75;2.47;;;5.20;99.90;;;5.24;100.00;100858.09;5035429;28;20206;-63
2022/12/05 09:01:32;;;;;;;3.67;2.03;;;5.10;99.90;;;5.37;100.00;100860.94;5030470;28;20204;-64
2022/12/05 09:04:01;;;;;;;2.80;2.20;;;5.20;99.90;;;5.45;100.00;100853.69;5012047;28;20225;-63
2022/12/05 09:06:28;;;;;;;3.78;2.20;;;5.30;99.90;;;5.17;100.00;100867.06;5013461;28;20209;-63
2022/12/05 09:08:58;;;;;;;7.55;3.00;;;5.30;99.90;;;5.20;100.00;100873.81;5018778;28;20256;-64
2022/12/05 09:11:29;;;;;;;2.83;2.53;;;5.20;99.90;;;5.32;100.00;100874.09;5052131;28;20201;-64
2022/12/05 09:13:58;;;;;;;3.25;1.67;;;5.20;99.90;;;5.20;100.00;100882.44;5037662;28;20230;-64
2022/12/05 09:16:31;;;;;;;5.03;2.47;;;5.20;99.90;;;5.41;100.00;100878.00;5015735;28;20208;-63
2022/12/05 09:19:07;;;;;;;2.90;2.30;;;5.30;99.90;;;5.28;100.00;100882.09;5032190;28;20253;-64
2022/12/05 09:21:34;;;;;;;8.07;2.65;;;5.30;99.90;;;5.27;100.00;100883.00;5018957;28;20694;-64
2022/12/05 09:24:01;;;;;;;1.15;0.75;;;5.30;99.90;;;5.45;100.00;100888.13;5033223;28;20221;-64
2022/12/05 09:26:29;;;;;;;7.03;3.13;;;5.30;99.90;;;5.55;100.00;100888.56;5037882;28;20198;-64
2022/12/05 09:28:56;;;;;;;6.72;2.83;;;5.40;99.90;;;5.56;100.00;100892.81;5032721;28;20226;-64
2022/12/05 09:31:25;;;;;;;4.43;2.70;;;5.40;99.90;;;5.64;100.00;100897.66;5034359;28;20202;-64
2022/12/05 09:33:53;;;;;;;1.00;0.90;;;5.50;99.90;;;5.67;100.00;100890.56;5031630;28;20226;-64
2022/12/05 09:36:25;;;;;;;2.38;1.08;;;5.50;99.90;;;5.51;100.00;100893.03;5013349;28;20202;-64
2022/12/05 09:38:53;;;;;;;10.07;4.90;;;5.50;99.90;;;5.59;100.00;100892.69;5038103;28;20204;-64
2022/12/05 09:45:03;;;;;;;6.10;3.60;;;5.50;99.90;;;5.47;100.00;100891.50;5036270;28;20230;-63
2022/12/05 09:48:01;;;;;;;5.30;3.27;;;5.50;99.90;;;5.57;100.00;100893.66;5031620;28;20587;-64
2022/12/05 09:50:47;;;;;;;6.18;2.75;;;5.50;99.90;;;5.66;100.00;100888.91;5025044;28;20689;-64
2022/12/05 09:53:31;;;;;;;5.35;3.03;;;5.50;99.90;;;5.74;100.00;100891.97;5035571;28;20306;-64
2022/12/05 09:56:13;;;;;;;5.97;4.18;;;5.60;99.90;;;5.67;100.00;100893.16;5014438;28;20290;-63
2022/12/05 09:58:55;;;;;;;2.58;1.75;;;5.60;99.90;;;5.65;100.00;100884.63;5029617;28;20201;-64
2022/12/05 10:01:37;;;;;;;4.90;3.05;;;5.60;99.90;;;5.54;100.00;100879.09;5032563;28;20202;-64
2022/12/05 10:04:48;;;;;;;4.30;2.95;;;5.60;99.90;;;5.56;100.00;100884.22;5044899;28;20706;-64
2022/12/05 10:07:43;;;;;;;5.30;3.13;;;5.50;99.90;;;5.70;100.00;100885.25;5014474;28;20264;-63
2022/12/05 10:10:33;;;;;;;6.37;3.67;;;5.60;99.90;;;5.65;100.00;100886.34;5008661;28;20672;-64
2022/12/05 10:13:37;;;;;;;7.15;3.75;;;5.50;99.90;;;5.52;100.00;100883.53;5030492;28;20632;-64
2022/12/05 10:16:32;;;;;;;4.00;2.22;;;5.60;99.90;;;5.60;100.00;100881.41;5032231;28;20200;-64
2022/12/05 10:19:06;;;;;;;0.82;0.82;;;5.50;99.90;;;5.56;100.00;100882.47;5023748;28;20396;-64
2022/12/05 10:22:09;;;;;;;1.48;1.33;;;5.50;99.90;;;5.79;100.00;100883.97;5033282;28;20210;-63
2022/12/05 10:24:51;;;;;;;4.65;3.20;;;5.60;99.90;;;5.79;100.00;100882.19;5021106;28;20645;-64
2022/12/05 10:27:26;;;;;;;8.50;4.10;;;5.70;99.90;;;6.01;100.00;100879.44;5029778;28;20198;-64
2022/12/05 10:30:05;;;;;;;4.93;2.23;;;5.70;99.90;;;5.88;99.74;100881.78;5012352;28;20229;-64
2022/12/05 10:33:00;;;;;;;3.05;1.30;;;5.80;99.90;;;5.90;100.00;100879.97;5013091;28;20980;-63
2022/12/05 10:35:38;;;;;;;6.30;3.90;;;5.80;99.90;;;5.98;99.97;100889.97;5018958;28;20209;-64
2022/12/05 10:38:23;;;;;;;2.78;2.58;;;5.80;99.90;;;5.93;99.51;100890.19;5032716;28;20213;-64
2022/12/05 10:40:57;;;;;;;8.05;3.15;;;5.90;99.90;;;5.94;98.98;100886.66;5031537;28;20194;-64
2022/12/05 10:43:30;;;;;;;5.50;2.85;;;5.90;99.90;;;5.92;99.50;100893.69;5017667;28;20229;-65
2022/12/05 10:45:59;;;;;;;5.70;2.42;;;5.90;99.90;;;5.69;100.00;100888.72;5032095;28;20208;-67
2022/12/05 10:48:27;;;;;;;4.75;3.00;;;5.70;99.90;;;5.89;100.00;100893.00;5030952;28;20715;-64
2022/12/05 10:50:56;;;;;;;8.05;1.35;;;5.80;99.90;;;5.72;100.00;100882.56;5031583;28;20941;-64
2022/12/05 10:53:48;;;;;;;1.13;1.08;;;5.80;99.90;;;5.80;100.00;100886.47;5042786;28;20236;-63
2022/12/05 10:56:40;;;;;;;10.50;4.53;;;5.80;99.90;;;5.88;100.00;100879.19;5028903;28;20677;-64
2022/12/05 10:59:12;;;;;;;4.03;2.70;;;5.80;99.90;;;5.85;99.92;100881.97;5036049;28;20650;-64
2022/12/05 11:01:51;;;;;;;4.10;1.58;;;5.80;99.90;;;5.90;99.95;100885.16;5021307;28;20656;-64
2022/12/05 11:04:43;;;;;;;2.50;1.73;;;5.80;99.90;;;6.07;98.36;100882.56;5028940;28;20245;-64
2022/12/05 11:07:26;;;;;;;6.00;2.97;;;5.90;99.90;;;6.12;98.27;100880.59;5012838;28;20732;-64